createdAt,value
2023-05-06T00:00:27.409Z,12.80
2023-05-06T00:02:55.241Z,12.80
2023-05-06T00:05:22.429Z,12.80
2023-05-06T00:07:49.348Z,12.90
2023-05-06T00:10:16.872Z,12.90
2023-05-06T00:12:43.867Z,12.90
2023-05-06T00:15:11.504Z,12.90
2023-05-06T00:17:38.795Z,12.90
2023-05-06T00:20:07.328Z,12.90
2023-05-06T00:22:34.214Z,12.90
2023-05-06T00:25:01.155Z,12.90
2023-05-06T00:27:28.102Z,12.90
2023-05-06T00:29:55.049Z,12.90
2023-05-06T00:32:21.899Z,12.90
2023-05-06T00:34:48.747Z,12.90
2023-05-06T00:37:15.645Z,12.90
2023-05-06T00:39:42.616Z,12.90
2023-05-06T00:42:09.532Z,12.90
2023-05-06T00:44:36.442Z,12.90
2023-05-06T00:47:04.597Z,12.80
2023-05-06T00:49:32.097Z,12.80
2023-05-06T00:52:00.130Z,12.80
2023-05-06T00:54:29.585Z,12.80
2023-05-06T00:56:56.549Z,12.70
2023-05-06T00:59:23.979Z,12.70
2023-05-06T01:01:52.145Z,12.70
2023-05-06T01:04:20.033Z,12.70
2023-05-06T01:07:46.459Z,12.70
2023-05-06T01:10:31.182Z,12.70
2023-05-06T01:13:58.899Z,12.70
2023-05-06T01:16:30.802Z,12.70
2023-05-06T01:19:00.588Z,12.70
2023-05-06T01:21:34.565Z,12.80
2023-05-06T01:24:02.144Z,12.80
2023-05-06T01:26:29.075Z,12.80
2023-05-06T01:28:58.275Z,12.80
2023-05-06T01:31:45.397Z,12.70
2023-05-06T01:34:45.360Z,12.70
2023-05-06T01:37:47.131Z,12.70
2023-05-06T01:40:17.607Z,12.60
2023-05-06T01:42:51.544Z,12.60
2023-05-06T01:45:24.301Z,12.50
2023-05-06T01:47:52.167Z,12.50
2023-05-06T01:50:19.757Z,12.50
2023-05-06T01:53:02.398Z,12.50
2023-05-06T01:55:29.771Z,12.50
2023-05-06T01:57:56.827Z,12.40
2023-05-06T02:00:24.971Z,12.40
2023-05-06T02:02:52.087Z,12.50
2023-05-06T02:05:19.254Z,12.50
2023-05-06T02:07:46.208Z,12.40
2023-05-06T02:10:13.255Z,12.40
2023-05-06T02:12:40.255Z,12.40
2023-05-06T02:15:08.480Z,12.40
2023-05-06T02:17:38.423Z,12.40
2023-05-06T02:20:07.105Z,12.30
2023-05-06T02:22:34.031Z,12.30
2023-05-06T02:25:01.360Z,12.30
2023-05-06T02:27:28.314Z,12.30
2023-05-06T02:29:55.262Z,12.30
2023-05-06T02:32:22.159Z,12.30
2023-05-06T02:34:49.060Z,12.30
2023-05-06T02:37:16.078Z,12.30
2023-05-06T02:39:43.054Z,12.20
2023-05-06T02:42:13.570Z,12.20
2023-05-06T02:44:40.680Z,12.30
2023-05-06T02:47:07.640Z,12.20
2023-05-06T02:49:34.503Z,12.20
2023-05-06T02:52:01.448Z,12.20
2023-05-06T02:54:28.333Z,12.20
2023-05-06T02:56:55.709Z,12.20
2023-05-06T02:59:23.876Z,12.20
2023-05-06T03:01:50.822Z,12.20
2023-05-06T03:04:18.280Z,12.20
2023-05-06T03:06:45.143Z,12.20
2023-05-06T03:09:12.096Z,12.30
2023-05-06T03:11:38.948Z,12.30
2023-05-06T03:14:05.985Z,12.20
2023-05-06T03:16:33.054Z,12.20
2023-05-06T03:19:00.296Z,12.20
2023-05-06T03:21:27.274Z,12.20
2023-05-06T03:23:54.355Z,12.20
2023-05-06T03:26:21.351Z,12.30
2023-05-06T03:28:48.313Z,12.20
2023-05-06T03:31:15.244Z,12.30
2023-05-06T03:33:42.510Z,12.30
2023-05-06T03:36:09.455Z,12.40
2023-05-06T03:38:36.369Z,12.40
2023-05-06T03:41:03.458Z,12.30
2023-05-06T03:43:30.380Z,12.30
2023-05-06T03:45:58.826Z,12.30
2023-05-06T03:48:25.926Z,12.40
2023-05-06T03:50:52.951Z,12.30
2023-05-06T03:53:20.057Z,12.30
2023-05-06T03:55:46.962Z,12.30
2023-05-06T03:58:13.931Z,12.40
2023-05-06T04:00:40.822Z,12.30
2023-05-06T04:03:07.860Z,12.30
2023-05-06T04:05:34.851Z,12.20
2023-05-06T04:08:01.732Z,12.20
2023-05-06T04:10:29.053Z,12.20
2023-05-06T04:12:56.004Z,12.20
2023-05-06T04:15:23.965Z,12.30
2023-05-06T04:17:50.922Z,12.30
2023-05-06T04:20:18.018Z,12.30
2023-05-06T04:22:44.978Z,12.30
2023-05-06T04:25:12.124Z,12.30
2023-05-06T04:27:39.171Z,12.30
2023-05-06T04:30:07.391Z,12.30
2023-05-06T04:32:34.406Z,12.30
2023-05-06T04:35:01.435Z,12.30
2023-05-06T04:37:28.984Z,12.40
2023-05-06T04:39:55.856Z,12.40
2023-05-06T04:42:22.955Z,12.40
2023-05-06T04:44:49.817Z,12.40
2023-05-06T04:47:16.971Z,12.50
2023-05-06T04:49:44.034Z,12.50
2023-05-06T04:52:10.990Z,12.50
2023-05-06T04:54:37.989Z,12.60
2023-05-06T04:57:04.839Z,12.70
2023-05-06T04:59:31.821Z,12.70
2023-05-06T05:01:58.673Z,12.70
2023-05-06T05:04:26.254Z,12.70
2023-05-06T05:06:53.184Z,12.80
2023-05-06T05:09:20.065Z,12.80
2023-05-06T05:11:46.945Z,12.90
2023-05-06T05:14:13.890Z,12.90
2023-05-06T05:16:40.862Z,13.00
2023-05-06T05:19:09.504Z,13.10
2023-05-06T05:21:36.504Z,13.20
2023-05-06T05:24:03.760Z,13.30
2023-05-06T05:26:30.676Z,13.60
2023-05-06T05:28:57.633Z,13.70
2023-05-06T05:31:24.589Z,13.80
2023-05-06T05:33:51.565Z,13.80
2023-05-06T05:36:19.017Z,13.70
2023-05-06T05:38:47.690Z,13.60
2023-05-06T05:41:17.314Z,13.60
2023-05-06T05:43:44.535Z,13.60
2023-05-06T05:46:11.445Z,13.60
2023-05-06T05:48:39.671Z,13.70
2023-05-06T05:51:06.723Z,13.80
2023-05-06T05:53:33.560Z,13.70
2023-05-06T05:56:00.416Z,13.80
2023-05-06T05:58:27.377Z,13.90
2023-05-06T06:00:54.233Z,13.90
2023-05-06T06:03:21.205Z,14.00
2023-05-06T06:05:49.262Z,13.80
2023-05-06T06:08:18.656Z,13.80
2023-05-06T06:10:46.072Z,13.70
2023-05-06T06:13:13.457Z,13.70
2023-05-06T06:15:41.300Z,13.80
2023-05-06T06:18:08.802Z,14.00
2023-05-06T06:20:36.842Z,14.10
2023-05-06T06:23:03.729Z,14.30
2023-05-06T06:25:30.852Z,14.70
2023-05-06T06:27:57.920Z,14.90
2023-05-06T06:30:25.076Z,15.00
2023-05-06T06:32:53.973Z,15.00
2023-05-06T06:35:21.017Z,14.90
2023-05-06T06:37:48.070Z,14.70
2023-05-06T06:40:16.082Z,14.70
2023-05-06T06:42:43.112Z,14.90
2023-05-06T06:45:11.096Z,15.20
2023-05-06T06:47:38.291Z,15.50
2023-05-06T06:50:06.561Z,15.70
2023-05-06T06:52:33.786Z,15.80
2023-05-06T06:55:02.161Z,15.90
2023-05-06T06:57:29.163Z,16.10
2023-05-06T06:59:56.160Z,16.50
2023-05-06T07:02:23.515Z,16.80
2023-05-06T07:04:50.507Z,16.90
2023-05-06T07:07:17.434Z,16.20
2023-05-06T07:09:44.600Z,16.10
2023-05-06T07:12:11.976Z,16.10
2023-05-06T07:14:39.002Z,16.40
2023-05-06T07:17:05.971Z,16.60
2023-05-06T07:19:32.969Z,16.60
2023-05-06T07:22:04.964Z,16.70
2023-05-06T07:24:32.047Z,17.20
2023-05-06T07:27:00.657Z,17.80
2023-05-06T07:29:27.642Z,17.30
2023-05-06T07:31:54.670Z,17.60
2023-05-06T07:34:21.559Z,18.50
2023-05-06T07:36:48.463Z,18.60
2023-05-06T07:39:15.711Z,18.60
2023-05-06T07:41:42.605Z,18.70
2023-05-06T07:44:09.497Z,19.00
2023-05-06T07:46:36.494Z,19.50
2023-05-06T07:49:03.489Z,20.30
2023-05-06T07:51:31.272Z,20.90
2023-05-06T07:53:58.260Z,22.20
2023-05-06T07:56:25.124Z,23.30
2023-05-06T07:58:52.052Z,23.30
2023-05-06T08:03:44.386Z,20.70
2023-05-06T08:06:11.526Z,19.20
2023-05-06T08:08:38.494Z,18.80
2023-05-06T08:11:05.434Z,19.50
2023-05-06T08:13:33.359Z,20.30
2023-05-06T08:16:02.228Z,21.10
2023-05-06T08:18:29.929Z,21.90
2023-05-06T08:20:56.987Z,22.00
2023-05-06T08:23:24.080Z,22.20
2023-05-06T08:25:51.272Z,21.40
2023-05-06T08:28:19.641Z,20.60
2023-05-06T08:30:48.292Z,20.00
2023-05-06T08:33:15.290Z,19.80
2023-05-06T08:35:42.284Z,20.00
2023-05-06T08:38:09.143Z,21.00
2023-05-06T08:40:44.954Z,22.00
2023-05-06T08:43:14.912Z,22.30
2023-05-06T08:45:42.414Z,22.80
2023-05-06T08:48:09.764Z,22.90
2023-05-06T08:50:45.706Z,21.80
2023-05-06T08:53:13.929Z,21.00
2023-05-06T08:55:45.281Z,21.00
2023-05-06T08:58:16.724Z,21.50
2023-05-06T09:00:46.097Z,21.20
2023-05-06T09:03:13.504Z,22.00
2023-05-06T09:05:40.434Z,22.50
2023-05-06T09:08:07.377Z,22.40
2023-05-06T09:10:46.068Z,22.70
2023-05-06T09:13:16.751Z,22.20
2023-05-06T09:15:49.223Z,21.00
2023-05-06T09:18:17.124Z,20.40
2023-05-06T09:20:49.857Z,19.80
2023-05-06T09:23:18.680Z,21.40
2023-05-06T09:25:47.699Z,22.30
2023-05-06T09:28:15.196Z,22.90
2023-05-06T09:30:47.314Z,24.00
2023-05-06T09:33:14.334Z,24.20
2023-05-06T09:35:44.457Z,23.90
2023-05-06T09:38:11.492Z,23.90
2023-05-06T09:40:39.671Z,23.00
2023-05-06T09:43:06.669Z,21.60
2023-05-06T09:45:33.773Z,20.40
2023-05-06T09:48:01.353Z,20.00
2023-05-06T09:50:28.778Z,20.40
2023-05-06T09:52:56.476Z,21.10
2023-05-06T09:55:26.521Z,22.10
2023-05-06T09:57:55.005Z,23.00
2023-05-06T10:00:27.946Z,23.70
2023-05-06T10:02:55.788Z,24.10
2023-05-06T10:05:26.068Z,22.80
2023-05-06T10:07:57.124Z,23.30
2023-05-06T10:10:28.200Z,24.10
2023-05-06T10:12:56.470Z,24.30
2023-05-06T10:15:26.538Z,24.10
2023-05-06T10:17:56.067Z,24.10
2023-05-06T10:20:27.592Z,23.50
2023-05-06T10:23:20.438Z,24.30
2023-05-06T10:25:53.466Z,25.70
2023-05-06T10:28:29.273Z,25.10
2023-05-06T10:30:59.807Z,24.50
2023-05-06T10:33:28.860Z,25.30
2023-05-06T10:36:25.830Z,25.00
2023-05-06T10:38:56.970Z,24.20
2023-05-06T10:41:27.982Z,23.30
2023-05-06T10:43:57.569Z,22.20
2023-05-06T10:46:28.156Z,22.00
2023-05-06T10:49:04.348Z,22.50
2023-05-06T10:51:32.755Z,23.30
2023-05-06T10:54:22.774Z,25.30
2023-05-06T10:56:49.668Z,25.90
2023-05-06T10:59:30.912Z,25.20
2023-05-06T11:02:09.497Z,24.20
2023-05-06T11:04:37.493Z,23.20
2023-05-06T11:07:22.329Z,22.70
2023-05-06T11:10:06.099Z,22.30
2023-05-06T11:12:55.550Z,22.20
2023-05-06T11:15:37.330Z,22.20
2023-05-06T11:18:29.359Z,23.10
2023-05-06T11:21:02.402Z,24.80
2023-05-06T11:23:52.032Z,25.90
2023-05-06T11:26:19.362Z,26.80
2023-05-06T11:28:49.999Z,26.70
2023-05-06T11:31:17.879Z,27.20
2023-05-06T11:33:52.350Z,28.00
2023-05-06T11:36:21.690Z,29.10
2023-05-06T11:38:53.156Z,29.60
2023-05-06T11:41:23.474Z,29.00
2023-05-06T11:43:53.704Z,28.50
2023-05-06T11:46:24.096Z,27.60
2023-05-06T11:48:51.188Z,27.80
2023-05-06T11:51:24.609Z,27.80
2023-05-06T11:54:03.764Z,27.50
2023-05-06T11:56:31.174Z,25.90
2023-05-06T11:58:58.205Z,26.10
2023-05-06T12:01:25.190Z,26.90
2023-05-06T12:03:56.052Z,27.00
2023-05-06T12:06:35.444Z,26.40
2023-05-06T12:09:07.907Z,25.60
2023-05-06T12:11:37.341Z,25.10
2023-05-06T12:14:08.754Z,24.70
2023-05-06T12:16:37.777Z,24.00
2023-05-06T12:19:05.798Z,23.30
2023-05-06T12:21:37.132Z,23.10
2023-05-06T12:24:05.962Z,23.30
2023-05-06T12:26:49.253Z,23.60
2023-05-06T12:29:18.428Z,23.80
2023-05-06T12:31:47.410Z,23.70
2023-05-06T12:34:18.126Z,23.30
2023-05-06T12:36:47.357Z,23.40
2023-05-06T12:39:14.630Z,23.80
2023-05-06T12:41:46.500Z,27.40
2023-05-06T12:44:39.921Z,30.80
2023-05-06T12:47:19.759Z,32.70
2023-05-06T12:49:58.997Z,32.80
2023-05-06T12:52:29.876Z,32.10
2023-05-06T12:55:00.725Z,31.40
2023-05-06T12:57:27.806Z,31.40
2023-05-06T12:59:56.542Z,31.90
2023-05-06T13:02:23.592Z,33.10
2023-05-06T13:04:50.573Z,34.40
2023-05-06T13:07:17.601Z,34.90
2023-05-06T13:09:44.812Z,35.10
2023-05-06T13:12:11.849Z,32.80
2023-05-06T13:14:40.301Z,32.50
2023-05-06T13:17:08.320Z,29.80
2023-05-06T13:19:35.813Z,28.80
2023-05-06T13:22:02.897Z,28.00
2023-05-06T13:24:30.658Z,29.50
2023-05-06T13:27:00.578Z,29.20
2023-05-06T13:29:28.048Z,30.90
2023-05-06T13:31:55.551Z,31.60
2023-05-06T13:34:22.455Z,29.80
2023-05-06T13:36:50.695Z,30.30
2023-05-06T13:39:17.739Z,28.80
2023-05-06T13:41:49.890Z,26.30
2023-05-06T13:44:18.880Z,24.90
2023-05-06T13:46:46.945Z,23.70
2023-05-06T13:49:18.367Z,23.20
2023-05-06T13:51:45.392Z,22.60
2023-05-06T13:54:12.487Z,22.40
2023-05-06T13:56:39.551Z,22.30
2023-05-06T13:59:08.036Z,21.80
2023-05-06T14:01:35.876Z,21.50
2023-05-06T14:04:03.035Z,21.60
2023-05-06T14:06:30.147Z,21.30
2023-05-06T14:08:57.331Z,20.90
2023-05-06T14:11:24.743Z,21.00
2023-05-06T14:13:52.159Z,21.00
2023-05-06T14:16:19.353Z,21.30
2023-05-06T14:18:46.324Z,22.90
2023-05-06T14:21:13.514Z,25.30
2023-05-06T14:23:40.709Z,27.00
2023-05-06T14:26:08.030Z,28.60
2023-05-06T14:28:35.527Z,28.60
2023-05-06T14:31:02.588Z,27.50
2023-05-06T14:33:29.474Z,26.90
2023-05-06T14:35:58.158Z,26.10
2023-05-06T14:38:25.164Z,27.60
2023-05-06T14:40:52.036Z,27.20
2023-05-06T14:43:19.249Z,26.90
2023-05-06T14:45:46.157Z,27.40
2023-05-06T14:48:13.177Z,28.20
2023-05-06T14:50:41.132Z,27.80
2023-05-06T14:53:08.134Z,27.20
2023-05-06T14:55:35.855Z,27.20
2023-05-06T14:58:03.512Z,27.50
2023-05-06T15:00:30.434Z,27.20
2023-05-06T15:02:57.390Z,26.30
2023-05-06T15:05:24.324Z,25.10
2023-05-06T15:07:51.830Z,24.70
2023-05-06T15:10:18.917Z,24.60
2023-05-06T15:12:46.107Z,24.80
2023-05-06T15:15:13.321Z,24.50
2023-05-06T15:17:41.715Z,24.40
2023-05-06T15:20:09.761Z,24.50
2023-05-06T15:22:39.349Z,25.30
2023-05-06T15:25:12.346Z,26.20
2023-05-06T15:27:43.727Z,26.40
2023-05-06T15:30:11.380Z,27.20
2023-05-06T15:32:38.359Z,27.50
2023-05-06T15:35:06.476Z,28.10
2023-05-06T15:37:34.991Z,28.60
2023-05-06T15:40:02.295Z,29.40
2023-05-06T15:42:30.030Z,29.80
2023-05-06T15:44:58.640Z,29.90
2023-05-06T15:47:25.706Z,30.20
2023-05-06T15:49:54.806Z,30.10
2023-05-06T15:52:23.003Z,30.10
2023-05-06T15:54:50.454Z,30.30
2023-05-06T15:57:17.918Z,30.40
2023-05-06T15:59:44.813Z,30.00
2023-05-06T16:04:41.816Z,28.30
2023-05-06T16:07:08.985Z,27.80
2023-05-06T16:09:36.136Z,26.80
2023-05-06T16:12:03.303Z,26.40
2023-05-06T16:14:30.211Z,26.60
2023-05-06T16:16:58.383Z,26.50
2023-05-06T16:19:25.958Z,26.40
2023-05-06T16:21:53.333Z,26.40
2023-05-06T16:24:20.241Z,26.70
2023-05-06T16:26:47.140Z,25.80
2023-05-06T16:29:17.243Z,25.10
2023-05-06T16:31:44.281Z,24.60
2023-05-06T16:34:11.268Z,24.10
2023-05-06T16:36:38.217Z,23.90
2023-05-06T16:39:07.897Z,24.60
2023-05-06T16:41:34.968Z,25.20
2023-05-06T16:44:02.199Z,25.20
2023-05-06T16:46:29.386Z,25.50
2023-05-06T16:48:56.332Z,26.00
2023-05-06T16:51:23.531Z,26.20
2023-05-06T16:53:50.955Z,26.10
2023-05-06T16:56:17.831Z,25.90
2023-05-06T16:58:44.723Z,25.50
2023-05-06T17:01:11.732Z,24.70
2023-05-06T17:03:39.036Z,24.20
2023-05-06T17:06:06.193Z,23.90
2023-05-06T17:08:36.278Z,23.60
2023-05-06T17:11:06.902Z,23.30
2023-05-06T17:13:34.649Z,23.00
2023-05-06T17:16:01.538Z,23.00
2023-05-06T17:18:28.527Z,22.90
2023-05-06T17:20:57.154Z,22.90
2023-05-06T17:23:25.357Z,22.90
2023-05-06T17:25:57.198Z,22.70
2023-05-06T17:28:24.796Z,22.60
2023-05-06T17:30:51.974Z,22.70
2023-05-06T17:33:19.230Z,22.90
2023-05-06T17:35:46.376Z,22.90
2023-05-06T17:38:13.696Z,22.60
2023-05-06T17:40:40.605Z,22.30
2023-05-06T17:43:07.622Z,22.10
2023-05-06T17:45:34.774Z,22.00
2023-05-06T17:48:01.949Z,21.80
2023-05-06T17:50:28.949Z,21.70
2023-05-06T17:52:56.011Z,21.50
2023-05-06T17:55:23.221Z,21.20
2023-05-06T17:57:52.342Z,20.90
2023-05-06T18:00:19.663Z,20.70
2023-05-06T18:02:46.876Z,20.30
2023-05-06T18:05:13.966Z,20.10
2023-05-06T18:07:41.161Z,19.70
2023-05-06T18:10:09.111Z,19.40
2023-05-06T18:12:36.764Z,19.20
2023-05-06T18:15:04.706Z,19.00
2023-05-06T18:17:31.612Z,18.80
2023-05-06T18:19:58.597Z,18.60
2023-05-06T18:22:25.708Z,18.40
2023-05-06T18:24:55.166Z,18.10
2023-05-06T18:27:22.748Z,17.90
2023-05-06T18:29:49.684Z,17.70
2023-05-06T18:32:17.736Z,17.60
2023-05-06T18:34:44.701Z,17.50
2023-05-06T18:37:11.605Z,17.40
2023-05-06T18:39:42.749Z,17.20
2023-05-06T18:42:10.019Z,17.00
2023-05-06T18:44:37.502Z,16.70
2023-05-06T18:47:05.018Z,16.50
2023-05-06T18:49:32.077Z,16.30
2023-05-06T18:51:59.126Z,16.10
2023-05-06T18:54:26.160Z,15.90
2023-05-06T18:56:53.367Z,15.80
2023-05-06T18:59:21.420Z,15.60
2023-05-06T19:01:48.475Z,15.50
2023-05-06T19:04:16.219Z,15.40
2023-05-06T19:06:43.264Z,15.20
2023-05-06T19:09:11.111Z,15.10
2023-05-06T19:11:38.480Z,14.90
2023-05-06T19:14:05.516Z,14.80
2023-05-06T19:16:32.520Z,14.70
2023-05-06T19:18:59.735Z,14.60
2023-05-06T19:21:27.846Z,14.50
2023-05-06T19:23:59.573Z,14.50
2023-05-06T19:26:29.516Z,14.40
2023-05-06T19:28:56.548Z,14.30
2023-05-06T19:31:23.717Z,14.30
2023-05-06T19:33:50.762Z,14.20
2023-05-06T19:36:17.768Z,14.10
2023-05-06T19:38:44.705Z,14.00
2023-05-06T19:41:11.914Z,13.90
2023-05-06T19:43:44.045Z,13.80
2023-05-06T19:46:12.227Z,13.70
2023-05-06T19:48:39.446Z,13.70
2023-05-06T19:51:06.811Z,13.60
2023-05-06T19:53:36.024Z,13.50
2023-05-06T19:56:14.120Z,13.40
2023-05-06T19:58:41.118Z,13.30
2023-05-06T20:01:08.904Z,13.30
2023-05-06T20:03:36.687Z,13.20
2023-05-06T20:06:04.260Z,13.20
2023-05-06T20:08:31.265Z,13.10
2023-05-06T20:10:58.395Z,13.00
2023-05-06T20:13:25.842Z,13.00
2023-05-06T20:15:54.859Z,12.90
2023-05-06T20:18:22.677Z,12.90
2023-05-06T20:20:49.702Z,13.00
2023-05-06T20:23:16.737Z,13.10
2023-05-06T20:25:43.655Z,13.20
2023-05-06T20:28:10.878Z,13.20
2023-05-06T20:30:38.366Z,13.20
2023-05-06T20:33:05.535Z,13.10
2023-05-06T20:35:38.125Z,13.00
2023-05-06T20:38:05.986Z,12.90
2023-05-06T20:40:35.589Z,12.80
2023-05-06T20:43:02.926Z,12.80
2023-05-06T20:45:30.927Z,12.70
2023-05-06T20:47:58.433Z,12.70
2023-05-06T20:50:25.617Z,12.60
2023-05-06T20:52:54.224Z,12.60
2023-05-06T20:55:23.297Z,12.50
2023-05-06T20:57:50.845Z,12.40
2023-05-06T21:00:19.175Z,12.30
2023-05-06T21:02:46.294Z,12.20
2023-05-06T21:05:13.482Z,12.10
2023-05-06T21:07:41.116Z,12.00
2023-05-06T21:10:11.330Z,11.90
2023-05-06T21:12:38.821Z,11.90
2023-05-06T21:15:07.024Z,11.90
2023-05-06T21:17:34.034Z,12.00
2023-05-06T21:20:01.407Z,12.10
2023-05-06T21:22:28.985Z,12.10
2023-05-06T21:24:55.933Z,12.20
2023-05-06T21:27:23.065Z,12.20
2023-05-06T21:29:50.147Z,12.30
2023-05-06T21:32:17.196Z,12.30
2023-05-06T21:34:44.162Z,12.30
2023-05-06T21:37:11.510Z,12.30
2023-05-06T21:39:38.474Z,12.30
2023-05-06T21:42:05.465Z,12.30
2023-05-06T21:44:32.447Z,12.20
2023-05-06T21:46:59.387Z,12.30
2023-05-06T21:49:26.484Z,12.50
2023-05-06T21:51:53.463Z,12.60
2023-05-06T21:54:21.069Z,12.60
2023-05-06T21:56:48.167Z,12.60
2023-05-06T21:59:15.037Z,12.50
2023-05-06T22:01:42.139Z,12.30
2023-05-06T22:04:12.849Z,12.20
2023-05-06T22:06:40.190Z,12.10
2023-05-06T22:09:09.205Z,11.90
2023-05-06T22:11:38.106Z,12.00
2023-05-06T22:14:06.348Z,11.90
2023-05-06T22:16:35.163Z,11.80
2023-05-06T22:19:03.020Z,11.70
2023-05-06T22:21:31.664Z,11.60
2023-05-06T22:23:58.666Z,11.50
2023-05-06T22:26:27.992Z,11.40
2023-05-06T22:28:56.413Z,11.40
2023-05-06T22:31:24.445Z,11.30
2023-05-06T22:33:57.335Z,11.30
2023-05-06T22:36:28.902Z,11.20
2023-05-06T22:38:56.141Z,11.10
2023-05-06T22:41:23.167Z,11.10
2023-05-06T22:43:50.135Z,11.00
2023-05-06T22:46:17.829Z,10.80
2023-05-06T22:48:46.200Z,10.70
2023-05-06T22:51:18.564Z,10.60
2023-05-06T22:53:45.508Z,10.50
2023-05-06T22:56:12.535Z,10.60
2023-05-06T22:58:39.554Z,10.90
2023-05-06T23:01:07.363Z,11.20
2023-05-06T23:03:36.025Z,11.50
2023-05-06T23:06:04.339Z,11.80
2023-05-06T23:08:31.454Z,12.10
2023-05-06T23:10:58.340Z,12.30
2023-05-06T23:13:26.361Z,12.40
2023-05-06T23:15:53.601Z,12.60
2023-05-06T23:18:20.832Z,12.70
2023-05-06T23:20:47.957Z,12.80
2023-05-06T23:23:14.864Z,13.00
2023-05-06T23:25:41.755Z,13.00
2023-05-06T23:28:08.653Z,13.00
2023-05-06T23:30:35.647Z,13.00
2023-05-06T23:33:03.693Z,13.00
2023-05-06T23:35:30.658Z,13.00
2023-05-06T23:37:57.516Z,13.00
2023-05-06T23:40:24.426Z,13.00
2023-05-06T23:42:51.414Z,13.00
2023-05-06T23:45:19.627Z,12.90
2023-05-06T23:47:46.679Z,12.90
2023-05-06T23:50:14.285Z,12.90
2023-05-06T23:52:41.447Z,12.80
2023-05-06T23:55:09.261Z,12.80
2023-05-06T23:57:36.491Z,12.80
